Whitmore Lake, Michigan
Current Conditions -  °F | °C
As of 11:53 AM on Tuesday 27 Jan 2015 (Local Time) from KARB Reporting Station
Clear Clear  
Wind Chill: 16°   Ceiling: Unl
Heat Index: 24°   Visibility: 10mi
Dew Point: 12°   Wind: 7mph
Humidity: 60%   Direction: 40°NE
Pressure: 30.1"   Gusts: NA
Location:  42.43°N, 83.75°W
Report Text: KARB 271653Z 04006KT 10SM CLR M04/M11 A3010 RMK AO2 SLP209 T10441111
Loading
Personal Weather Stations






























Interactive Weather Map New forecast layout! Learn more

10-Day Weather Forecast

Advertisements
Track Severe Weather on mobile